Time;durP1;ratioP1;P1;durP2;ratioP2;P2;SDS_P1;SDS_P2;PMS_P1;PMS_P2;Temp;Humidity;BMP_temperature;BMP_pressure;BME280_temperature;BME280_humidity;BME280_pressure;Samples;Min_cycle;Max_cycle;Signal;HPM_P1;HPM_P2
2022/01/25 00:15:53;;;;;;;23.90;14.15;;;0.80;99.90;;;;;;5003060;28;20795;-78
2022/01/25 00:26:22;;;;;;;25.27;14.20;;;0.40;99.90;;;;;;5000181;28;20246;-77
2022/01/25 00:29:04;;;;;;;25.25;14.50;;;0.40;99.90;;;;;;4995458;28;20631;-78
2022/01/25 00:31:31;;;;;;;27.08;15.73;;;0.30;99.90;;;;;;4978615;28;20194;-77
2022/01/25 00:33:57;;;;;;;22.67;13.85;;;0.20;99.90;;;;;;4992768;28;20308;-78
2022/01/25 00:36:28;;;;;;;26.63;15.63;;;0.20;99.90;;;;;;4992906;28;20346;-78
2022/01/25 00:38:55;;;;;;;28.60;17.10;;;0.20;99.90;;;;;;4992562;28;20413;-79
2022/01/25 00:41:22;;;;;;;26.42;15.05;;;0.20;99.90;;;;;;4991689;28;20186;-79
2022/01/25 00:43:48;;;;;;;32.30;16.38;;;0.00;99.90;;;;;;4993303;28;20191;-77
2022/01/25 00:46:15;;;;;;;23.48;14.65;;;0.00;99.90;;;;;;4990712;28;20224;-79
2022/01/25 00:48:46;;;;;;;24.95;13.52;;;-0.10;99.90;;;;;;4991662;28;20186;-79
2022/01/25 00:54:44;;;;;;;28.38;16.10;;;-0.20;99.90;;;;;;4974386;28;20607;-78
2022/01/25 00:56:47;;;;;;;29.95;16.05;;;-0.20;99.90;;;;;;4981341;28;20211;-78
2022/01/25 00:59:18;;;;;;;25.00;14.63;;;-0.20;99.90;;;;;;4989547;28;20638;-80
2022/01/25 01:01:45;;;;;;;31.25;16.88;;;-0.20;99.90;;;;;;4973745;28;20917;-80
2022/01/25 01:04:11;;;;;;;25.67;14.73;;;-0.30;99.90;;;;;;4989774;28;20206;-78
2022/01/25 01:06:38;;;;;;;28.45;15.73;;;-0.30;99.90;;;;;;4991361;28;20234;-78
2022/01/25 01:09:08;;;;;;;28.23;15.00;;;-0.30;99.90;;;;;;4991203;28;20326;-79
2022/01/25 01:11:41;;;;;;;27.38;15.93;;;-0.30;99.90;;;;;;4990965;28;20252;-78
2022/01/25 01:31:08;;;;;;;26.95;14.70;;;-0.50;99.90;;;;;;4991230;28;20189;-79
2022/01/25 01:38:54;;;;;;;25.77;15.70;;;-0.60;99.90;;;;;;4943203;28;20199;-79
2022/01/25 01:43:57;;;;;;;24.15;15.48;;;-0.70;99.90;;;;;;4991059;28;20175;-81
2022/01/25 01:46:45;;;;;;;26.40;15.00;;;-0.70;99.90;;;;;;4974731;28;20584;-81
2022/01/25 01:49:11;;;;;;;27.63;15.50;;;-0.70;99.90;;;;;;4992022;28;20180;-81
2022/01/25 01:51:42;;;;;;;28.40;15.43;;;-0.70;99.90;;;;;;4973808;28;20216;-80
2022/01/25 01:54:14;;;;;;;30.67;15.95;;;-0.80;99.90;;;;;;4991847;28;20190;-81
2022/01/25 01:56:42;;;;;;;27.13;15.25;;;-0.70;99.90;;;;;;4991605;28;20206;-81
2022/01/25 01:59:11;;;;;;;26.98;14.57;;;-0.60;99.90;;;;;;4992929;28;20264;-80
2022/01/25 02:01:39;;;;;;;28.05;15.32;;;-0.70;99.90;;;;;;4990610;28;20276;-81
2022/01/25 02:04:08;;;;;;;25.27;14.98;;;-0.60;99.90;;;;;;4992640;28;20182;-80
2022/01/25 02:06:34;;;;;;;22.17;12.52;;;-0.70;99.90;;;;;;4990664;28;20293;-80
2022/01/25 02:09:00;;;;;;;18.07;10.77;;;-0.80;99.90;;;;;;4992149;28;20213;-79
2022/01/25 02:11:26;;;;;;;17.50;11.53;;;-0.90;99.90;;;;;;4991801;28;20440;-79
2022/01/25 02:13:53;;;;;;;19.70;11.85;;;-1.00;99.90;;;;;;4994162;28;20558;-78
2022/01/25 02:16:57;;;;;;;21.38;12.18;;;-1.10;99.90;;;;;;4995967;28;20194;-78
2022/01/25 02:24:39;;;;;;;26.90;12.70;;;-1.20;99.90;;;;;;4992784;28;20592;-80
2022/01/25 02:27:05;;;;;;;22.92;13.25;;;-1.30;99.90;;;;;;4990821;28;20693;-80
2022/01/25 02:29:31;;;;;;;21.08;12.48;;;-1.30;99.90;;;;;;4991061;28;20663;-80
2022/01/25 02:31:57;;;;;;;21.50;12.40;;;-1.20;99.90;;;;;;4991097;28;20201;-79
2022/01/25 02:34:24;;;;;;;22.27;12.75;;;-1.20;99.90;;;;;;4974872;28;20473;-80
2022/01/25 02:37:04;;;;;;;23.70;13.25;;;-1.20;99.90;;;;;;4990701;28;20225;-79
2022/01/25 02:39:30;;;;;;;18.92;11.50;;;-1.30;99.90;;;;;;4991759;28;20193;-79
2022/01/25 02:41:56;;;;;;;22.80;13.27;;;-1.20;99.90;;;;;;4993161;28;20182;-79
2022/01/25 02:44:27;;;;;;;27.45;13.98;;;-1.10;99.90;;;;;;4992419;28;20289;-79
2022/01/25 02:49:27;;;;;;;22.70;12.45;;;-1.00;99.90;;;;;;4992503;28;20244;-80
2022/01/25 02:51:53;;;;;;;25.92;12.38;;;-1.00;99.90;;;;;;4993058;28;20240;-79
2022/01/25 02:54:19;;;;;;;19.48;11.40;;;-1.00;99.90;;;;;;4976040;28;20592;-79
2022/01/25 02:56:46;;;;;;;18.90;11.63;;;-0.90;99.90;;;;;;4991890;28;20204;-77
2022/01/25 02:59:13;;;;;;;21.45;11.95;;;-0.80;99.90;;;;;;4975832;28;20190;-80
2022/01/25 03:01:39;;;;;;;21.42;12.60;;;-0.80;99.90;;;;;;4992785;28;20316;-79
2022/01/25 03:04:06;;;;;;;21.55;11.70;;;-0.90;99.90;;;;;;4994244;28;20191;-79
2022/01/25 03:06:33;;;;;;;22.92;12.05;;;-0.90;99.90;;;;;;4995485;28;20254;-77
2022/01/25 03:08:59;;;;;;;21.88;11.95;;;-0.90;99.90;;;;;;4994191;28;20686;-79
2022/01/25 03:11:25;;;;;;;19.88;12.05;;;-0.90;99.90;;;;;;4993753;28;20240;-80
2022/01/25 03:13:55;;;;;;;17.55;10.30;;;-1.00;99.90;;;;;;4993072;28;20746;-78
2022/01/25 03:19:02;;;;;;;15.80;10.13;;;-1.10;99.90;;;;;;4994890;28;20195;-79
2022/01/25 03:23:56;;;;;;;16.25;10.23;;;-1.10;99.90;;;;;;4977919;28;20566;-79
2022/01/25 03:26:23;;;;;;;18.55;11.00;;;-1.10;99.90;;;;;;4994769;28;20212;-79
2022/01/25 03:28:49;;;;;;;19.10;10.35;;;-1.10;99.90;;;;;;4993148;28;20948;-78
2022/01/25 03:31:15;;;;;;;19.33;11.32;;;-1.10;99.90;;;;;;4999372;28;20324;-79
2022/01/25 03:33:42;;;;;;;18.43;10.30;;;-1.10;99.90;;;;;;5000849;28;20237;-79
2022/01/25 03:36:09;;;;;;;18.63;11.38;;;-1.20;99.90;;;;;;5005077;28;20444;-79
2022/01/25 03:38:37;;;;;;;17.73;11.45;;;-1.10;99.90;;;;;;5002736;28;20193;-78
2022/01/25 03:41:09;;;;;;;20.85;10.90;;;-1.20;99.90;;;;;;5000682;28;20744;-78
2022/01/25 03:43:36;;;;;;;18.48;10.40;;;-1.20;99.90;;;;;;5001144;28;20185;-78
2022/01/25 03:46:12;;;;;;;18.27;11.27;;;-1.30;99.90;;;;;;5004809;28;20578;-79
2022/01/25 03:51:07;;;;;;;19.05;10.93;;;-1.40;99.90;;;;;;4996871;28;20648;-79
2022/01/25 03:53:33;;;;;;;24.30;11.87;;;-1.50;99.90;;;;;;5000044;28;20246;-79
2022/01/25 03:55:59;;;;;;;16.08;9.90;;;-1.40;99.90;;;;;;5001404;28;20469;-78
2022/01/25 03:58:26;;;;;;;22.17;11.10;;;-1.40;99.90;;;;;;5004023;28;20213;-79
2022/01/25 04:00:52;;;;;;;20.10;10.95;;;-1.40;99.90;;;;;;4980670;28;20212;-78
2022/01/25 04:03:36;;;;;;;17.13;10.47;;;-1.40;99.90;;;;;;4996413;28;20189;-78
2022/01/25 04:06:02;;;;;;;21.35;11.20;;;-1.30;99.90;;;;;;4997671;28;20212;-78
2022/01/25 04:08:28;;;;;;;17.88;10.20;;;-1.30;99.90;;;;;;4961291;28;20321;-77
2022/01/25 04:10:54;;;;;;;16.63;10.23;;;-1.30;99.90;;;;;;4989954;28;20186;-76
2022/01/25 04:13:19;;;;;;;17.50;9.63;;;-1.40;99.90;;;;;;4990289;28;20978;-76
2022/01/25 04:15:46;;;;;;;19.13;11.40;;;-1.40;99.90;;;;;;4990132;28;20209;-76
2022/01/25 04:18:52;;;;;;;19.80;11.43;;;-1.40;99.90;;;;;;4991636;28;20186;-77
2022/01/25 04:21:42;;;;;;;17.42;10.98;;;-1.30;99.90;;;;;;4991485;28;20730;-76
2022/01/25 04:26:55;;;;;;;18.60;11.60;;;-1.40;99.90;;;;;;4994834;28;20279;-78
2022/01/25 04:29:21;;;;;;;18.40;10.85;;;-1.40;99.90;;;;;;4997081;28;20430;-78
2022/01/25 04:31:47;;;;;;;19.00;11.77;;;-1.40;99.90;;;;;;4997654;28;20197;-78
2022/01/25 04:50:22;;;;;;;22.23;12.23;;;-1.60;99.90;;;;;;4989193;28;20252;-74
2022/01/25 04:52:57;;;;;;;21.65;11.82;;;-1.50;99.90;;;;;;4988679;28;20209;-74
2022/01/25 04:55:34;;;;;;;23.85;13.00;;;-1.60;99.90;;;;;;4990108;28;20683;-74
2022/01/25 04:58:07;;;;;;;20.08;11.88;;;-1.60;99.90;;;;;;4990047;28;20192;-74
2022/01/25 05:00:33;;;;;;;23.27;12.98;;;-1.60;99.90;;;;;;4988817;28;20268;-74
2022/01/25 05:03:11;;;;;;;27.45;13.52;;;-1.60;99.90;;;;;;4990102;28;20178;-74
2022/01/25 05:05:53;;;;;;;23.27;13.80;;;-1.60;99.90;;;;;;4989899;28;20208;-74
2022/01/25 05:08:37;;;;;;;21.70;12.93;;;-1.60;99.90;;;;;;4989900;28;20297;-75
2022/01/25 05:11:16;;;;;;;24.38;13.40;;;-1.60;99.90;;;;;;4989257;28;20182;-74
2022/01/25 05:19:21;;;;;;;19.45;12.25;;;-1.70;99.90;;;;;;4988547;28;20181;-75
2022/01/25 05:24:37;;;;;;;22.73;13.07;;;-1.70;99.90;;;;;;4988203;28;20193;-75
2022/01/25 05:27:04;;;;;;;28.02;15.98;;;-1.70;99.90;;;;;;4987827;28;20581;-75
2022/01/25 05:29:30;;;;;;;33.13;17.35;;;-1.70;99.90;;;;;;4988247;28;20178;-75
2022/01/25 05:31:57;;;;;;;29.80;16.40;;;-1.70;99.90;;;;;;4986680;28;20247;-75
2022/01/25 05:34:23;;;;;;;26.73;15.18;;;-1.70;99.90;;;;;;4988279;28;20682;-74
2022/01/25 05:36:48;;;;;;;28.73;15.47;;;-1.70;99.90;;;;;;4986636;28;20211;-75
2022/01/25 05:39:19;;;;;;;22.77;13.10;;;-1.70;99.90;;;;;;4988173;28;20587;-74
2022/01/25 05:41:53;;;;;;;21.50;12.43;;;-1.80;99.90;;;;;;4986464;28;20278;-75
2022/01/25 05:47:03;;;;;;;21.53;12.43;;;-1.90;99.90;;;;;;4987999;28;21061;-74
2022/01/25 05:49:29;;;;;;;22.55;13.45;;;-1.90;99.90;;;;;;4988040;28;20184;-75
2022/01/25 05:51:54;;;;;;;22.23;13.00;;;-1.90;99.90;;;;;;4987784;28;20675;-75
2022/01/25 05:54:20;;;;;;;22.87;13.07;;;-1.90;99.90;;;;;;4986979;28;20564;-77
2022/01/25 05:56:46;;;;;;;25.80;12.50;;;-1.80;99.90;;;;;;4987872;28;20201;-75
2022/01/25 05:59:11;;;;;;;21.60;11.80;;;-1.80;99.90;;;;;;4988062;28;20730;-74
2022/01/25 06:01:37;;;;;;;22.00;12.67;;;-1.80;99.90;;;;;;4987872;28;20229;-75
2022/01/25 06:04:03;;;;;;;20.57;12.20;;;-1.80;99.90;;;;;;4987800;28;20556;-75
2022/01/25 06:06:29;;;;;;;19.00;13.27;;;-1.80;99.90;;;;;;4970082;28;20206;-75
2022/01/25 06:08:56;;;;;;;22.98;13.32;;;-1.90;99.90;;;;;;4987684;28;20181;-75
2022/01/25 06:11:22;;;;;;;23.15;12.88;;;-1.90;99.90;;;;;;4986414;28;20239;-75
2022/01/25 06:13:48;;;;;;;25.13;14.38;;;-1.90;99.90;;;;;;4987430;28;20300;-75
2022/01/25 06:16:14;;;;;;;34.70;17.47;;;-1.90;99.90;;;;;;4987258;28;20284;-75
2022/01/25 06:18:39;;;;;;;30.87;17.20;;;-1.90;99.90;;;;;;4987587;28;20212;-75
2022/01/25 06:21:05;;;;;;;27.47;13.77;;;-2.00;99.90;;;;;;4985890;28;20467;-74
2022/01/25 06:23:31;;;;;;;25.70;14.67;;;-2.00;99.90;;;;;;4987426;28;20201;-75
2022/01/25 06:25:56;;;;;;;26.70;13.40;;;-2.10;99.90;;;;;;4988031;28;20263;-73
2022/01/25 06:28:22;;;;;;;25.73;12.37;;;-2.10;99.90;;;;;;4988182;28;20194;-72
2022/01/25 06:30:48;;;;;;;21.27;12.87;;;-2.00;99.90;;;;;;4987844;28;20185;-75
2022/01/25 06:33:14;;;;;;;25.07;12.83;;;-2.00;99.90;;;;;;4987470;28;20296;-74
2022/01/25 06:35:39;;;;;;;31.93;12.57;;;-2.00;99.90;;;;;;4987343;28;20194;-74
2022/01/25 06:38:05;;;;;;;25.30;13.20;;;-2.00;99.90;;;;;;4988583;28;20415;-74
2022/01/25 06:40:31;;;;;;;24.97;12.00;;;-2.00;99.90;;;;;;4989854;28;20195;-75
2022/01/25 06:42:57;;;;;;;23.42;13.57;;;-2.00;99.90;;;;;;4991349;28;20189;-74
2022/01/25 06:45:23;;;;;;;25.23;14.00;;;-2.10;99.90;;;;;;4991156;28;20212;-74
2022/01/25 06:47:50;;;;;;;23.60;12.73;;;-2.10;99.90;;;;;;4991181;28;20212;-74
2022/01/25 06:50:19;;;;;;;27.20;13.70;;;-2.10;99.90;;;;;;4991197;28;20240;-74
2022/01/25 06:52:46;;;;;;;21.02;12.55;;;-2.10;99.90;;;;;;4991253;28;20735;-74
2022/01/25 06:55:14;;;;;;;26.40;14.18;;;-2.10;99.90;;;;;;4990876;28;20292;-74
2022/01/25 06:57:41;;;;;;;26.85;15.25;;;-2.10;99.90;;;;;;4991138;28;20177;-74
2022/01/25 07:00:13;;;;;;;29.05;14.02;;;-2.10;99.90;;;;;;4991029;28;20217;-74
2022/01/25 07:02:39;;;;;;;25.52;13.85;;;-2.10;99.90;;;;;;4990967;28;20178;-75
2022/01/25 07:05:05;;;;;;;24.53;13.27;;;-2.10;99.90;;;;;;4990807;28;20985;-74
2022/01/25 07:07:31;;;;;;;24.17;13.93;;;-2.00;99.90;;;;;;4991010;28;21037;-75
2022/01/25 07:09:57;;;;;;;29.02;15.52;;;-2.00;99.90;;;;;;4990745;28;20191;-75
2022/01/25 07:12:24;;;;;;;23.00;14.50;;;-1.90;99.90;;;;;;4990810;28;20623;-75
2022/01/25 07:14:50;;;;;;;27.05;14.02;;;-1.70;99.90;;;;;;4990741;28;20553;-75
2022/01/25 07:17:15;;;;;;;26.42;15.10;;;-1.90;99.90;;;;;;4990833;28;20204;-75
2022/01/25 07:19:41;;;;;;;30.53;14.30;;;-1.90;99.90;;;;;;4990813;28;20260;-75
2022/01/25 07:22:07;;;;;;;29.10;15.47;;;-1.90;99.90;;;;;;4990787;28;20337;-75
2022/01/25 07:24:33;;;;;;;25.13;13.93;;;-1.90;99.90;;;;;;4991304;28;20185;-75
2022/01/25 07:26:59;;;;;;;27.47;14.93;;;-1.80;99.90;;;;;;4991189;28;20289;-75
2022/01/25 07:29:24;;;;;;;30.27;15.60;;;-1.90;99.90;;;;;;4991157;28;20182;-75
2022/01/25 07:31:50;;;;;;;25.73;15.13;;;-2.00;99.90;;;;;;4989537;28;20520;-75
2022/01/25 07:34:16;;;;;;;24.77;13.80;;;-2.00;99.90;;;;;;4991032;28;20468;-75
2022/01/25 07:36:42;;;;;;;24.73;13.70;;;-2.00;99.90;;;;;;4990978;28;20448;-75
2022/01/25 07:39:09;;;;;;;28.37;16.20;;;-2.00;99.90;;;;;;4991141;28;20185;-75
2022/01/25 07:41:36;;;;;;;28.77;16.92;;;-2.00;99.90;;;;;;4991045;28;20295;-75
2022/01/25 07:44:02;;;;;;;27.63;16.02;;;-1.90;99.90;;;;;;4990686;28;20194;-75
2022/01/25 07:46:29;;;;;;;27.60;14.97;;;-1.30;99.90;;;;;;4990808;28;20944;-75
2022/01/25 07:48:55;;;;;;;25.45;15.70;;;-1.10;99.90;;;;;;4973483;28;20421;-74
2022/01/25 07:51:21;;;;;;;28.58;16.70;;;-1.30;99.90;;;;;;4991398;28;20189;-75
2022/01/25 07:53:47;;;;;;;58.97;30.07;;;-1.40;99.90;;;;;;4990631;28;20254;-74
2022/01/25 07:56:13;;;;;;;52.03;25.57;;;-1.20;99.90;;;;;;4990160;28;20691;-75
2022/01/25 07:58:38;;;;;;;31.00;17.63;;;-0.90;99.90;;;;;;4988470;28;20664;-75
2022/01/25 08:01:05;;;;;;;26.37;16.07;;;-0.80;99.90;;;;;;4989681;28;20182;-75
2022/01/25 08:03:31;;;;;;;24.92;15.40;;;-0.70;99.90;;;;;;4988256;28;20189;-76
2022/01/25 08:05:56;;;;;;;26.48;14.27;;;-0.50;99.90;;;;;;4989678;28;20205;-74
2022/01/25 08:08:22;;;;;;;26.67;15.37;;;-0.30;99.90;;;;;;4989885;28;20185;-74
2022/01/25 08:10:48;;;;;;;27.10;15.77;;;0.00;99.90;;;;;;4989738;28;20189;-74
2022/01/25 08:13:14;;;;;;;37.88;20.15;;;0.30;99.90;;;;;;4989621;28;20212;-75
2022/01/25 08:15:40;;;;;;;28.90;15.17;;;0.60;99.90;;;;;;4989412;28;20678;-75
2022/01/25 08:18:06;;;;;;;24.70;13.97;;;1.00;99.90;;;;;;4988222;28;20420;-74
2022/01/25 08:20:32;;;;;;;20.90;12.37;;;1.40;99.90;;;;;;4989574;28;20436;-75
2022/01/25 08:22:57;;;;;;;17.37;11.10;;;1.60;99.90;;;;;;4989554;28;20952;-74
2022/01/25 08:25:23;;;;;;;15.83;10.37;;;2.40;99.90;;;;;;4989585;28;20438;-75
2022/01/25 08:27:49;;;;;;;13.67;9.90;;;3.50;99.90;;;;;;4971800;28;20190;-74
2022/01/25 08:30:15;;;;;;;15.87;11.23;;;4.70;99.90;;;;;;4989400;28;20188;-74
2022/01/25 08:32:41;;;;;;;18.50;11.93;;;5.70;99.90;;;;;;4989449;28;20243;-74
2022/01/25 08:35:08;;;;;;;18.03;11.90;;;6.80;98.50;;;;;;4987987;28;21017;-75
2022/01/25 08:37:33;;;;;;;14.60;11.50;;;7.80;96.50;;;;;;4989428;28;20833;-74
2022/01/25 08:39:59;;;;;;;14.80;11.30;;;8.90;92.80;;;;;;4989316;28;20425;-75
2022/01/25 08:42:25;;;;;;;14.70;12.10;;;10.20;88.50;;;;;;4989301;28;20967;-75
2022/01/25 08:44:51;;;;;;;16.53;12.37;;;11.00;79.70;;;;;;4989239;28;20194;-75
2022/01/25 08:47:16;;;;;;;19.30;15.07;;;11.90;77.30;;;;;;4989023;28;20279;-75
2022/01/25 08:49:43;;;;;;;18.77;12.80;;;12.80;76.20;;;;;;4989343;28;20533;-75
2022/01/25 08:52:09;;;;;;;34.93;24.47;;;13.80;69.90;;;;;;4989074;28;20260;-74
2022/01/25 08:54:35;;;;;;;37.53;27.17;;;13.30;66.90;;;;;;4989392;28;20503;-74
2022/01/25 08:57:02;;;;;;;29.17;23.30;;;13.80;64.60;;;;;;4989069;28;20435;-75
2022/01/25 08:59:28;;;;;;;29.13;23.60;;;13.90;62.50;;;;;;4989084;28;20419;-74
2022/01/25 09:01:53;;;;;;;25.97;21.30;;;13.70;64.00;;;;;;4988210;28;20439;-74
2022/01/25 09:04:19;;;;;;;24.57;20.20;;;14.30;63.10;;;;;;4987642;28;20519;-74
2022/01/25 09:06:48;;;;;;;26.30;21.17;;;14.70;60.20;;;;;;4988861;28;20446;-74
2022/01/25 09:09:14;;;;;;;31.03;22.43;;;14.90;58.40;;;;;;4989108;28;20744;-74
2022/01/25 09:11:41;;;;;;;28.63;21.90;;;15.30;58.70;;;;;;4989174;28;20508;-74
2022/01/25 09:14:08;;;;;;;27.63;22.60;;;15.50;58.00;;;;;;4989298;28;20456;-74
2022/01/25 09:16:34;;;;;;;24.73;20.70;;;15.70;57.00;;;;;;4988836;28;20440;-74
2022/01/25 09:19:00;;;;;;;27.40;21.83;;;15.70;56.90;;;;;;4989476;28;20491;-74
2022/01/25 09:21:26;;;;;;;26.00;22.27;;;16.10;55.40;;;;;;4989504;28;20832;-74
2022/01/25 09:23:53;;;;;;;29.50;23.37;;;16.40;54.70;;;;;;4989646;28;20422;-74
2022/01/25 09:26:19;;;;;;;24.50;20.20;;;16.40;53.70;;;;;;4989562;28;20444;-74
2022/01/25 09:28:44;;;;;;;25.73;19.80;;;16.60;54.00;;;;;;4989606;28;20923;-74
2022/01/25 09:31:10;;;;;;;23.67;20.00;;;17.10;52.90;;;;;;4987855;28;20185;-74
2022/01/25 09:33:36;;;;;;;20.43;17.90;;;16.90;51.60;;;;;;4989169;28;20497;-74
2022/01/25 09:36:02;;;;;;;21.70;18.30;;;16.40;51.00;;;;;;4988851;28;20207;-74
2022/01/25 09:38:28;;;;;;;22.83;19.30;;;15.30;51.80;;;;;;4989189;28;20194;-74
2022/01/25 09:40:54;;;;;;;28.83;20.00;;;13.70;54.90;;;;;;4989087;28;20425;-73
2022/01/25 09:43:21;;;;;;;23.00;18.97;;;13.00;58.60;;;;;;4989278;28;20663;-73
2022/01/25 09:45:48;;;;;;;22.43;17.60;;;13.20;61.00;;;;;;4989197;28;20567;-75
2022/01/25 09:48:15;;;;;;;23.57;19.37;;;14.20;59.60;;;;;;4987888;28;20419;-75
2022/01/25 09:50:41;;;;;;;24.80;18.93;;;15.50;57.30;;;;;;4988734;28;20909;-75
2022/01/25 09:53:08;;;;;;;24.77;19.10;;;16.10;54.90;;;;;;4988491;28;20456;-75
2022/01/25 09:55:40;;;;;;;22.17;18.37;;;16.70;53.50;;;;;;4988715;28;20215;-73
2022/01/25 09:58:06;;;;;;;25.70;20.50;;;17.20;52.10;;;;;;4988955;28;20420;-73
2022/01/25 10:00:34;;;;;;;26.97;21.33;;;17.90;51.40;;;;;;4988862;28;20430;-74
2022/01/25 10:03:24;;;;;;;23.03;19.73;;;17.60;50.80;;;;;;5003718;28;20527;-75
2022/01/25 10:05:51;;;;;;;27.43;20.47;;;17.90;50.20;;;;;;4992527;28;20437;-75
2022/01/25 10:08:24;;;;;;;27.87;22.03;;;18.80;49.70;;;;;;4971374;28;20444;-75
2022/01/25 10:10:57;;;;;;;24.67;19.63;;;18.50;48.70;;;;;;4987391;28;20531;-75
2022/01/25 10:13:44;;;;;;;24.83;19.73;;;18.80;48.80;;;;;;4992065;28;20790;-75
2022/01/25 10:16:18;;;;;;;25.27;19.53;;;18.80;48.40;;;;;;4992596;28;20541;-74
2022/01/25 10:18:45;;;;;;;23.03;18.07;;;18.80;48.70;;;;;;4992472;28;20948;-74
2022/01/25 10:21:20;;;;;;;22.90;18.00;;;18.40;48.60;;;;;;4992409;28;20416;-74
2022/01/25 10:24:06;;;;;;;23.50;19.47;;;18.10;49.00;;;;;;4992464;28;20518;-74
2022/01/25 10:26:55;;;;;;;23.50;18.90;;;18.00;49.50;;;;;;4992099;28;20433;-74
2022/01/25 10:29:31;;;;;;;24.13;16.87;;;17.70;49.60;;;;;;4992212;28;20447;-74
2022/01/25 10:32:21;;;;;;;22.87;18.27;;;16.80;50.50;;;;;;4991771;28;21041;-74
2022/01/25 10:34:49;;;;;;;22.50;18.10;;;17.20;51.80;;;;;;4991742;28;20550;-74
2022/01/25 10:37:22;;;;;;;26.17;20.10;;;16.80;51.80;;;;;;4990112;28;20523;-74
2022/01/25 10:39:51;;;;;;;22.73;17.87;;;16.80;50.90;;;;;;4992458;28;20610;-74
2022/01/25 10:42:28;;;;;;;21.60;17.03;;;16.90;51.90;;;;;;4991429;28;20450;-74
2022/01/25 10:44:58;;;;;;;21.10;17.30;;;16.60;50.80;;;;;;4991490;28;20503;-73
2022/01/25 10:47:42;;;;;;;21.80;17.90;;;16.60;51.10;;;;;;4991569;28;20428;-74
2022/01/25 10:50:12;;;;;;;22.00;17.13;;;16.50;52.70;;;;;;4991658;28;20415;-74
2022/01/25 10:52:38;;;;;;;27.83;17.03;;;16.30;51.70;;;;;;4991058;28;20432;-74
2022/01/25 10:55:06;;;;;;;22.73;17.30;;;16.90;52.40;;;;;;4991374;28;20468;-74
2022/01/25 10:57:33;;;;;;;21.60;16.90;;;17.20;52.00;;;;;;4992264;28;20283;-74
2022/01/25 11:00:06;;;;;;;22.40;16.83;;;17.30;51.70;;;;;;4992730;28;20425;-73
2022/01/25 11:02:32;;;;;;;23.23;17.60;;;17.20;51.00;;;;;;4991498;28;20426;-74
2022/01/25 11:05:09;;;;;;;19.80;16.30;;;17.20;51.60;;;;;;4991571;28;20774;-74
2022/01/25 11:07:46;;;;;;;26.37;20.10;;;17.80;51.30;;;;;;4991699;28;20191;-75
2022/01/25 11:10:32;;;;;;;23.53;17.33;;;17.80;50.20;;;;;;4991711;28;20420;-75
2022/01/25 11:13:05;;;;;;;20.43;16.23;;;17.70;51.60;;;;;;4990216;28;20506;-74
2022/01/25 11:15:30;;;;;;;20.67;16.70;;;17.60;51.40;;;;;;4991550;28;21173;-74
2022/01/25 11:17:56;;;;;;;20.07;16.03;;;17.90;51.00;;;;;;4991351;28;20418;-74
2022/01/25 11:20:22;;;;;;;20.27;16.33;;;17.80;50.30;;;;;;4991346;28;20544;-74
2022/01/25 11:22:48;;;;;;;19.07;15.47;;;17.80;51.10;;;;;;4990727;28;20177;-74
2022/01/25 11:25:19;;;;;;;19.30;15.53;;;17.50;50.50;;;;;;4988754;28;20208;-74
2022/01/25 11:27:45;;;;;;;20.57;16.80;;;17.10;50.80;;;;;;4990803;28;20783;-74
2022/01/25 11:30:17;;;;;;;24.00;15.67;;;17.00;50.50;;;;;;4991038;28;20430;-74
2022/01/25 11:32:45;;;;;;;22.80;15.80;;;16.90;51.20;;;;;;4991016;28;20414;-74
2022/01/25 11:35:15;;;;;;;21.97;16.30;;;16.30;51.70;;;;;;4973759;28;20558;-74
2022/01/25 11:37:46;;;;;;;20.97;16.07;;;16.40;51.10;;;;;;4991061;28;20416;-74
2022/01/25 11:40:37;;;;;;;20.53;15.77;;;15.80;52.50;;;;;;4991012;28;20424;-74
2022/01/25 11:43:06;;;;;;;18.27;15.67;;;16.00;53.60;;;;;;4991335;28;21128;-74
2022/01/25 11:45:34;;;;;;;22.00;15.30;;;16.00;53.60;;;;;;4991383;28;20508;-73
2022/01/25 11:48:01;;;;;;;23.73;17.10;;;15.60;53.30;;;;;;4991453;28;20423;-73
2022/01/25 11:50:27;;;;;;;23.40;17.47;;;15.70;52.60;;;;;;4974139;28;20429;-73
2022/01/25 11:52:56;;;;;;;24.47;17.57;;;15.40;53.20;;;;;;4991127;28;20446;-73
2022/01/25 11:55:26;;;;;;;24.60;16.60;;;15.10;54.10;;;;;;4989696;28;20479;-73
2022/01/25 11:58:00;;;;;;;23.07;15.57;;;14.80;54.70;;;;;;4990945;28;21311;-74
2022/01/25 12:00:47;;;;;;;23.60;16.73;;;14.50;55.50;;;;;;4989323;28;21255;-74
2022/01/25 12:03:24;;;;;;;20.93;15.70;;;14.90;55.00;;;;;;4990630;28;20432;-73
2022/01/25 12:06:06;;;;;;;21.77;16.00;;;15.10;55.10;;;;;;4988948;28;20445;-73
2022/01/25 12:11:40;;;;;;;21.10;16.07;;;14.80;55.40;;;;;;4990605;28;20428;-74
2022/01/25 12:14:29;;;;;;;24.53;16.83;;;15.20;55.30;;;;;;4990272;28;20452;-74
2022/01/25 12:17:09;;;;;;;22.60;17.33;;;15.20;54.40;;;;;;4983625;28;20453;-73
2022/01/25 12:19:51;;;;;;;25.73;17.17;;;14.50;55.20;;;;;;4990526;28;20418;-74
2022/01/25 12:27:47;;;;;;;21.20;15.30;;;13.70;57.80;;;;;;4989745;28;20413;-74
2022/01/25 12:30:40;;;;;;;21.33;17.00;;;13.20;59.20;;;;;;4990029;28;20869;-74
2022/01/25 12:33:26;;;;;;;26.87;17.90;;;13.00;59.50;;;;;;4989874;28;20809;-74
2022/01/25 12:36:04;;;;;;;23.00;16.87;;;13.10;60.30;;;;;;4987484;28;20696;-73
2022/01/25 12:38:33;;;;;;;24.37;17.37;;;13.20;60.50;;;;;;4989656;28;20515;-75
2022/01/25 12:41:07;;;;;;;27.00;15.63;;;13.30;59.90;;;;;;4989705;28;20462;-73
2022/01/25 12:43:44;;;;;;;23.10;15.77;;;12.60;62.90;;;;;;4990070;28;20406;-73
2022/01/25 12:46:20;;;;;;;19.13;15.63;;;12.70;62.80;;;;;;4989640;28;20483;-73
2022/01/25 12:48:48;;;;;;;21.87;15.77;;;13.00;62.40;;;;;;4988341;28;20555;-73
2022/01/25 12:51:20;;;;;;;20.80;15.70;;;12.70;62.20;;;;;;4987865;28;20437;-73
2022/01/25 12:53:48;;;;;;;22.07;16.30;;;13.30;62.20;;;;;;4987995;28;20567;-74
2022/01/25 12:56:20;;;;;;;24.00;14.87;;;13.60;60.50;;;;;;4989375;28;20436;-74
2022/01/25 12:58:50;;;;;;;20.50;15.07;;;13.90;59.70;;;;;;4989350;28;21171;-74
2022/01/25 13:01:18;;;;;;;21.37;15.20;;;14.00;59.90;;;;;;4989437;28;21214;-74
2022/01/25 13:03:46;;;;;;;21.27;14.43;;;14.00;59.40;;;;;;4989405;28;20424;-74
2022/01/25 13:06:24;;;;;;;22.17;15.60;;;13.70;60.20;;;;;;4989351;28;20445;-73
2022/01/25 13:09:06;;;;;;;21.03;16.83;;;13.20;62.70;;;;;;4989379;28;20424;-73
2022/01/25 13:16:45;;;;;;;18.37;13.67;;;12.90;64.60;;;;;;4987433;28;20468;-73
2022/01/25 13:19:12;;;;;;;18.27;13.20;;;12.80;64.80;;;;;;4989082;28;20186;-74
2022/01/25 13:21:43;;;;;;;17.10;13.70;;;13.00;64.70;;;;;;4989396;28;20964;-74
2022/01/25 13:24:15;;;;;;;22.33;13.43;;;12.80;65.10;;;;;;4989320;28;20439;-74
2022/01/25 13:27:04;;;;;;;18.50;14.07;;;12.80;65.70;;;;;;4987704;28;20459;-74
2022/01/25 13:32:26;;;;;;;23.47;16.83;;;12.80;67.10;;;;;;4989433;28;20420;-74
2022/01/25 13:35:12;;;;;;;21.13;14.80;;;12.70;69.10;;;;;;4989141;28;20999;-74
2022/01/25 13:37:38;;;;;;;25.80;15.40;;;12.50;70.20;;;;;;4988840;28;20574;-74
2022/01/25 13:40:05;;;;;;;22.03;16.20;;;12.40;69.60;;;;;;4988743;28;20494;-74
2022/01/25 13:42:56;;;;;;;29.40;16.87;;;12.30;70.00;;;;;;4988939;28;20423;-74
2022/01/25 13:48:12;;;;;;;26.53;16.80;;;12.20;72.30;;;;;;4988292;28;20458;-74
2022/01/25 13:50:39;;;;;;;22.10;15.53;;;11.70;72.40;;;;;;4989000;28;20424;-74
2022/01/25 13:53:06;;;;;;;24.87;16.83;;;11.80;73.00;;;;;;4988722;28;20506;-74
2022/01/25 13:55:33;;;;;;;23.63;17.50;;;11.70;72.70;;;;;;4987259;28;20997;-74
2022/01/25 13:57:59;;;;;;;23.13;16.10;;;11.30;73.60;;;;;;4988908;28;20430;-74
2022/01/25 14:00:26;;;;;;;25.77;17.30;;;10.80;74.60;;;;;;4988799;28;20418;-74
2022/01/25 14:02:54;;;;;;;23.60;15.97;;;10.40;77.00;;;;;;4988654;28;20182;-74
2022/01/25 14:05:21;;;;;;;25.13;14.97;;;9.90;81.00;;;;;;4988970;28;20444;-74
2022/01/25 14:07:52;;;;;;;26.43;15.60;;;9.60;83.90;;;;;;4989873;28;20504;-74
2022/01/25 14:10:24;;;;;;;25.93;14.80;;;9.10;86.60;;;;;;4988284;28;20489;-74
2022/01/25 14:23:51;;;;;;;24.10;14.13;;;8.40;92.30;;;;;;4988771;28;20397;-73
2022/01/25 14:26:19;;;;;;;26.80;14.73;;;8.80;91.50;;;;;;4988823;28;20445;-74
2022/01/25 14:28:54;;;;;;;22.53;14.60;;;8.90;90.60;;;;;;4988758;28;20420;-74
2022/01/25 14:31:22;;;;;;;20.87;14.20;;;9.30;89.70;;;;;;4988847;28;20421;-73
2022/01/25 14:34:00;;;;;;;23.10;13.57;;;9.20;89.40;;;;;;4988714;28;20843;-73
2022/01/25 14:36:28;;;;;;;18.60;13.73;;;9.40;88.90;;;;;;4988844;28;20434;-74
2022/01/25 14:38:58;;;;;;;20.23;13.60;;;9.20;88.30;;;;;;4987661;28;20969;-75
2022/01/25 14:41:32;;;;;;;22.17;13.90;;;8.70;89.70;;;;;;4989006;28;20476;-74
2022/01/25 14:44:07;;;;;;;20.07;13.73;;;8.30;91.20;;;;;;4988868;28;20443;-74
2022/01/25 14:46:48;;;;;;;18.70;13.77;;;7.80;93.20;;;;;;4989171;28;20439;-74